Elbow Lake, Minnesota
Current Conditions -  °F | °C
As of 10:56 PM on Monday 20 Oct 2014 (Local Time) from KY63 Reporting Station
Clear Clear  
Wind Chill: 47°   Ceiling: Unl
Heat Index: 49°   Visibility: 10mi
Dew Point: 39°   Wind: 5mph
Humidity: 69%   Direction: 90°E
Pressure: 30.05"   Gusts: NA
Location:  45.99°N, 95.98°W
Report Text: KY63 210356Z AUTO 09004KT 10SM CLR 10/04 A3005 RMK AO2 T00950041
Loading
Personal Weather Stations






























Interactive Weather Map New forecast layout! Learn more

10-Day Weather Forecast

Advertisements
Track Severe Weather on mobile